Time;durP1;ratioP1;P1;durP2;ratioP2;P2;SDS_P1;SDS_P2;PMS_P1;PMS_P2;Temp;Humidity;BMP_temperature;BMP_pressure;BME280_temperature;BME280_humidity;BME280_pressure;Samples;Min_cycle;Max_cycle;Signal;HPM_P1;HPM_P2
2023/03/26 00:01:25;;;;;;;17.83;3.15;;;7.80;99.90;;;;;;5005830;28;20813;-79
2023/03/26 00:03:56;;;;;;;17.95;3.47;;;7.70;99.90;;;;;;5005440;28;20771;-79
2023/03/26 00:06:28;;;;;;;16.98;3.10;;;7.80;99.90;;;;;;4994681;28;20456;-78
2023/03/26 00:08:56;;;;;;;17.23;3.30;;;7.80;99.90;;;;;;5007671;28;20415;-79
2023/03/26 00:11:23;;;;;;;17.15;3.25;;;7.80;99.90;;;;;;5006672;28;20854;-79
2023/03/26 00:13:52;;;;;;;17.55;3.40;;;7.80;99.90;;;;;;5006347;28;20451;-80
2023/03/26 00:16:18;;;;;;;17.15;2.95;;;7.80;99.90;;;;;;5006592;28;20411;-79
2023/03/26 00:18:44;;;;;;;16.48;2.97;;;7.80;99.90;;;;;;5005852;28;20440;-80
2023/03/26 00:21:15;;;;;;;22.63;3.83;;;7.70;99.90;;;;;;5006461;28;20420;-79
2023/03/26 00:23:42;;;;;;;16.85;3.13;;;7.70;99.90;;;;;;5007523;28;20949;-79
2023/03/26 00:26:09;;;;;;;20.48;3.33;;;7.80;99.90;;;;;;5007620;28;20492;-79
2023/03/26 00:28:37;;;;;;;18.83;3.22;;;7.70;99.90;;;;;;5008523;28;20429;-79
2023/03/26 00:31:04;;;;;;;16.42;2.50;;;7.70;99.90;;;;;;5006299;28;20772;-79
2023/03/26 00:33:31;;;;;;;18.27;2.78;;;7.70;99.90;;;;;;5062272;28;20424;-79
2023/03/26 00:35:59;;;;;;;17.70;2.85;;;7.70;99.90;;;;;;5005864;28;20444;-79
2023/03/26 00:38:27;;;;;;;15.93;2.70;;;7.70;99.90;;;;;;5007310;28;20449;-79
2023/03/26 00:40:53;;;;;;;18.00;3.10;;;7.70;99.90;;;;;;5003190;28;20845;-79
2023/03/26 00:43:21;;;;;;;19.58;3.42;;;7.70;99.90;;;;;;5009088;28;20410;-79
2023/03/26 00:45:52;;;;;;;18.85;3.00;;;7.70;99.90;;;;;;5007564;28;20465;-80
2023/03/26 00:48:19;;;;;;;18.85;2.97;;;7.70;99.90;;;;;;5025292;28;20432;-79
2023/03/26 00:50:46;;;;;;;16.13;2.80;;;7.60;99.90;;;;;;5034752;28;20520;-79
2023/03/26 00:53:14;;;;;;;18.05;3.10;;;7.60;99.90;;;;;;5006261;28;20818;-79
2023/03/26 00:55:41;;;;;;;18.17;3.50;;;7.60;99.90;;;;;;5008309;28;20486;-79
2023/03/26 00:58:09;;;;;;;18.10;2.77;;;7.50;99.90;;;;;;5008533;28;20511;-79
2023/03/26 01:00:56;;;;;;;19.00;3.00;;;7.60;99.90;;;;;;5002925;28;20420;-79
2023/03/26 01:03:23;;;;;;;19.27;3.75;;;7.50;99.90;;;;;;5002697;28;20421;-78
2023/03/26 01:05:55;;;;;;;15.35;2.88;;;7.50;99.90;;;;;;5005177;28;20492;-79
2023/03/26 01:08:29;;;;;;;18.60;2.47;;;7.50;99.90;;;;;;5004685;28;20409;-79
2023/03/26 01:11:05;;;;;;;22.85;3.42;;;7.50;99.90;;;;;;5001877;28;20417;-79
2023/03/26 01:13:35;;;;;;;16.67;2.90;;;7.40;99.90;;;;;;5003367;28;20445;-78
2023/03/26 01:16:02;;;;;;;16.08;3.22;;;7.40;99.90;;;;;;5017720;28;20447;-78
2023/03/26 01:18:33;;;;;;;17.42;2.53;;;7.40;99.90;;;;;;5002542;28;20539;-79
2023/03/26 01:21:04;;;;;;;19.37;2.77;;;7.40;99.90;;;;;;4992532;28;20608;-79
2023/03/26 01:23:44;;;;;;;16.90;2.70;;;7.30;99.90;;;;;;5004128;28;20417;-79
2023/03/26 01:26:30;;;;;;;19.17;3.38;;;7.30;99.90;;;;;;5004053;28;20896;-79
2023/03/26 01:29:00;;;;;;;16.92;2.70;;;7.40;99.90;;;;;;5001528;28;20413;-79
2023/03/26 01:31:35;;;;;;;17.00;2.90;;;7.30;99.90;;;;;;5004442;28;20745;-79
2023/03/26 01:34:36;;;;;;;13.27;2.22;;;7.30;99.90;;;;;;4994180;28;21003;-79
2023/03/26 01:37:04;;;;;;;16.13;2.87;;;7.30;99.90;;;;;;5004186;28;20417;-80
2023/03/26 01:39:48;;;;;;;16.40;2.80;;;7.30;99.90;;;;;;5002824;28;20437;-80
2023/03/26 01:42:26;;;;;;;15.70;2.40;;;7.30;99.90;;;;;;5005169;28;20994;-79
2023/03/26 01:44:58;;;;;;;18.27;2.37;;;7.20;99.90;;;;;;5007355;28;20495;-79
2023/03/26 01:47:24;;;;;;;15.82;2.78;;;7.20;99.90;;;;;;5007699;28;20412;-79
2023/03/26 01:49:50;;;;;;;15.05;2.35;;;7.20;99.90;;;;;;5006025;28;20459;-80
2023/03/26 01:52:19;;;;;;;13.40;2.42;;;7.20;99.90;;;;;;5006038;28;20453;-80
2023/03/26 01:54:45;;;;;;;17.75;2.75;;;7.20;99.90;;;;;;5004155;28;20416;-80
2023/03/26 01:57:37;;;;;;;15.02;2.47;;;7.20;99.90;;;;;;4990871;28;20945;-79
2023/03/26 02:00:19;;;;;;;17.77;2.97;;;7.20;99.90;;;;;;5006845;28;20917;-80
2023/03/26 02:03:02;;;;;;;16.92;2.65;;;7.20;99.90;;;;;;5009324;28;20429;-79
2023/03/26 02:05:42;;;;;;;12.65;2.53;;;7.20;99.90;;;;;;4992459;28;20428;-79
2023/03/26 02:08:19;;;;;;;18.63;2.35;;;7.20;99.90;;;;;;4999033;28;20987;-78
2023/03/26 02:10:49;;;;;;;15.98;2.30;;;7.10;99.90;;;;;;5011642;28;20776;-79
2023/03/26 02:13:15;;;;;;;13.20;2.38;;;7.10;99.90;;;;;;5009302;28;20405;-79
2023/03/26 02:16:04;;;;;;;12.48;2.10;;;7.10;99.90;;;;;;5011756;28;20408;-79
2023/03/26 02:18:35;;;;;;;14.18;2.55;;;7.00;99.90;;;;;;5009512;28;20552;-79
2023/03/26 02:21:08;;;;;;;13.30;2.05;;;7.00;99.90;;;;;;4991393;28;20424;-80
2023/03/26 02:23:35;;;;;;;11.35;1.98;;;7.00;99.90;;;;;;5011414;28;20556;-80
2023/03/26 02:26:08;;;;;;;14.43;2.88;;;6.90;99.90;;;;;;5009036;28;20405;-80
2023/03/26 02:28:34;;;;;;;15.55;2.17;;;6.90;99.90;;;;;;5008970;28;20839;-79
2023/03/26 02:31:00;;;;;;;11.15;1.85;;;6.90;99.90;;;;;;5008550;28;20437;-79
2023/03/26 02:33:30;;;;;;;13.18;1.75;;;6.90;99.90;;;;;;5009072;28;20931;-80
2023/03/26 02:36:00;;;;;;;15.02;2.10;;;6.90;99.90;;;;;;5008745;28;20496;-80
2023/03/26 02:38:28;;;;;;;15.90;2.42;;;6.90;99.90;;;;;;5008363;28;20463;-80
2023/03/26 02:40:54;;;;;;;11.63;2.03;;;6.90;99.90;;;;;;5008606;28;20776;-80
2023/03/26 02:43:21;;;;;;;13.55;2.10;;;6.80;99.90;;;;;;5007017;28;20409;-79
2023/03/26 02:45:46;;;;;;;13.73;2.30;;;6.80;99.90;;;;;;5059373;28;20458;-80
2023/03/26 02:48:13;;;;;;;15.20;2.60;;;6.80;99.90;;;;;;5003076;28;20409;-79
2023/03/26 02:50:39;;;;;;;14.68;2.65;;;6.70;99.90;;;;;;5005604;28;20409;-80
2023/03/26 02:53:05;;;;;;;16.20;2.70;;;6.70;99.90;;;;;;5014532;28;20414;-80
2023/03/26 02:55:31;;;;;;;13.83;2.17;;;6.70;99.90;;;;;;5010751;28;20405;-80
2023/03/26 02:57:57;;;;;;;13.18;2.40;;;6.60;99.90;;;;;;5015088;28;20438;-80
2023/03/26 03:00:24;;;;;;;14.23;2.38;;;6.60;99.90;;;;;;5012636;28;20499;-80
2023/03/26 03:02:51;;;;;;;12.65;2.10;;;6.60;99.90;;;;;;5005542;28;20408;-80
2023/03/26 03:05:18;;;;;;;16.50;2.65;;;6.60;99.90;;;;;;5012198;28;20412;-80
2023/03/26 03:07:45;;;;;;;16.88;3.05;;;6.50;99.90;;;;;;5012534;28;20417;-80
2023/03/26 03:10:12;;;;;;;20.02;2.40;;;6.50;99.90;;;;;;5007069;28;20481;-80
2023/03/26 03:12:41;;;;;;;19.38;2.70;;;6.50;99.90;;;;;;5005556;28;20423;-80
2023/03/26 03:15:08;;;;;;;13.40;2.55;;;6.50;99.90;;;;;;5007037;28;20438;-80
2023/03/26 03:17:33;;;;;;;16.07;2.43;;;6.50;99.90;;;;;;5019768;28;20428;-80
2023/03/26 03:19:59;;;;;;;14.73;2.73;;;6.60;99.90;;;;;;5006441;28;20417;-80
2023/03/26 03:22:24;;;;;;;14.05;2.75;;;6.60;99.90;;;;;;5018858;28;20411;-80
2023/03/26 03:24:56;;;;;;;16.03;2.73;;;6.60;99.90;;;;;;5007222;28;20423;-80
2023/03/26 03:27:24;;;;;;;19.40;3.13;;;6.60;99.90;;;;;;5010678;28;20471;-80
2023/03/26 03:29:52;;;;;;;15.50;2.90;;;6.60;99.90;;;;;;5006705;28;20938;-80
2023/03/26 03:32:18;;;;;;;16.87;3.00;;;6.60;99.90;;;;;;5019396;28;20439;-80
2023/03/26 03:34:44;;;;;;;16.95;2.80;;;6.70;99.90;;;;;;5015836;28;20412;-80
2023/03/26 03:37:10;;;;;;;18.20;3.13;;;6.70;99.90;;;;;;5019146;28;20403;-80
2023/03/26 03:39:36;;;;;;;13.07;2.60;;;6.70;99.90;;;;;;5014566;28;20433;-80
2023/03/26 03:42:01;;;;;;;20.27;3.13;;;6.70;99.90;;;;;;5019624;28;20533;-80
2023/03/26 03:44:27;;;;;;;13.90;2.13;;;6.70;99.90;;;;;;5016508;28;20409;-80
2023/03/26 03:46:54;;;;;;;17.05;2.70;;;6.70;99.90;;;;;;5042952;28;20469;-80
2023/03/26 03:49:20;;;;;;;14.98;2.60;;;6.70;99.90;;;;;;5015911;28;20401;-80
2023/03/26 03:51:46;;;;;;;16.42;2.63;;;6.70;99.90;;;;;;5018762;28;21156;-80
2023/03/26 03:54:12;;;;;;;13.50;2.45;;;6.70;99.90;;;;;;5012515;28;20456;-80
2023/03/26 03:56:38;;;;;;;20.55;3.28;;;6.80;99.90;;;;;;5004810;28;20409;-80
2023/03/26 03:59:04;;;;;;;19.02;2.88;;;6.80;99.90;;;;;;5005574;28;20438;-80
2023/03/26 04:01:30;;;;;;;17.35;2.60;;;6.80;99.90;;;;;;5004645;28;20413;-80
2023/03/26 04:03:57;;;;;;;15.73;2.28;;;6.80;99.90;;;;;;5008420;28;20405;-80
2023/03/26 04:06:24;;;;;;;17.52;2.88;;;6.80;99.90;;;;;;5007291;28;20424;-80
2023/03/26 04:08:50;;;;;;;15.67;2.47;;;6.80;99.90;;;;;;5008458;28;20454;-80
2023/03/26 04:11:16;;;;;;;18.23;2.63;;;6.80;99.90;;;;;;5006435;28;20413;-80
2023/03/26 04:13:42;;;;;;;14.55;2.53;;;6.80;99.90;;;;;;5007342;28;21290;-80
2023/03/26 04:16:09;;;;;;;15.93;2.65;;;6.80;99.90;;;;;;4988471;28;20401;-80
2023/03/26 04:18:36;;;;;;;17.90;2.80;;;6.80;99.90;;;;;;5003630;28;20433;-80
2023/03/26 04:21:04;;;;;;;15.55;2.88;;;6.80;99.90;;;;;;5005073;28;20426;-80
2023/03/26 04:23:30;;;;;;;14.38;2.80;;;6.80;99.90;;;;;;5059615;28;20417;-79
2023/03/26 04:26:02;;;;;;;17.92;2.78;;;6.80;99.90;;;;;;5004614;28;20398;-80
2023/03/26 04:28:35;;;;;;;16.88;2.65;;;6.80;99.90;;;;;;5005198;28;20482;-80
2023/03/26 04:31:02;;;;;;;20.47;2.83;;;6.80;99.90;;;;;;5006514;28;20409;-80
2023/03/26 04:33:33;;;;;;;13.38;2.45;;;6.80;99.90;;;;;;5006374;28;20415;-80
2023/03/26 04:36:01;;;;;;;16.05;2.75;;;6.80;99.90;;;;;;5005982;28;20780;-80
2023/03/26 04:38:32;;;;;;;16.42;2.40;;;6.70;99.90;;;;;;5006784;28;20796;-80
2023/03/26 04:40:59;;;;;;;13.90;2.37;;;6.70;99.90;;;;;;5006822;28;20493;-79
2023/03/26 04:43:25;;;;;;;15.53;2.30;;;6.70;99.90;;;;;;5006577;28;20417;-79
2023/03/26 04:45:51;;;;;;;17.42;2.40;;;6.70;99.90;;;;;;5007682;28;20405;-80
2023/03/26 04:48:19;;;;;;;16.90;2.55;;;6.70;99.90;;;;;;5002769;28;20413;-80
2023/03/26 04:50:45;;;;;;;15.23;2.40;;;6.70;99.90;;;;;;5005973;28;20416;-79
2023/03/26 04:53:15;;;;;;;17.98;2.45;;;6.70;99.90;;;;;;5006425;28;20413;-79
2023/03/26 04:55:48;;;;;;;15.70;2.75;;;6.70;99.90;;;;;;5006647;28;20407;-79
2023/03/26 04:58:13;;;;;;;16.60;2.63;;;6.70;99.90;;;;;;5006445;28;20465;-79
2023/03/26 05:00:40;;;;;;;15.15;2.40;;;6.60;99.90;;;;;;5008199;28;20812;-80
2023/03/26 05:03:10;;;;;;;13.90;2.58;;;6.60;99.90;;;;;;5011862;28;20439;-79
2023/03/26 05:05:36;;;;;;;15.02;2.30;;;6.60;99.90;;;;;;5012007;28;20414;-80
2023/03/26 05:08:02;;;;;;;18.83;2.40;;;6.60;99.90;;;;;;5019336;28;20403;-79
2023/03/26 05:10:27;;;;;;;13.73;2.30;;;6.60;99.90;;;;;;5003821;28;20423;-80
2023/03/26 05:12:53;;;;;;;18.13;2.63;;;6.60;99.90;;;;;;5013406;28;21089;-79
2023/03/26 05:15:19;;;;;;;17.40;2.72;;;6.60;99.90;;;;;;5003856;28;20433;-80
2023/03/26 05:17:45;;;;;;;15.67;2.87;;;6.60;99.90;;;;;;5015836;28;20476;-80
2023/03/26 05:20:22;;;;;;;13.30;2.53;;;6.60;99.90;;;;;;5010584;28;20976;-80
2023/03/26 05:22:49;;;;;;;19.02;2.60;;;6.60;99.90;;;;;;5021334;28;20430;-79
2023/03/26 05:25:15;;;;;;;20.05;2.95;;;6.60;99.90;;;;;;5021344;28;20419;-80
2023/03/26 05:27:41;;;;;;;16.27;2.53;;;6.60;99.90;;;;;;5022992;28;20423;-80
2023/03/26 05:30:08;;;;;;;15.07;2.20;;;6.60;99.90;;;;;;5022284;28;20415;-79
2023/03/26 05:32:34;;;;;;;18.70;2.83;;;6.60;99.90;;;;;;5023087;28;20490;-79
2023/03/26 05:35:00;;;;;;;13.25;2.40;;;6.60;99.90;;;;;;5011795;28;20435;-80
2023/03/26 05:37:32;;;;;;;14.82;2.20;;;6.60;99.90;;;;;;5023733;28;20450;-79
2023/03/26 05:39:58;;;;;;;13.63;2.30;;;6.60;99.90;;;;;;5022871;28;20408;-79
2023/03/26 05:42:24;;;;;;;15.27;2.40;;;6.60;99.90;;;;;;5022107;28;20411;-79
2023/03/26 05:44:50;;;;;;;17.80;2.47;;;6.60;99.90;;;;;;5018548;28;20454;-79
2023/03/26 05:47:16;;;;;;;15.67;2.63;;;6.60;99.90;;;;;;5017769;28;20758;-79
2023/03/26 05:49:41;;;;;;;14.50;2.65;;;6.60;99.90;;;;;;5000484;28;20416;-79
2023/03/26 05:52:07;;;;;;;16.83;2.70;;;6.60;99.90;;;;;;5018910;28;20417;-79
2023/03/26 05:54:32;;;;;;;16.55;2.70;;;6.60;99.90;;;;;;5017880;28;20772;-79
2023/03/26 05:56:59;;;;;;;13.87;2.43;;;6.60;99.90;;;;;;5017690;28;20415;-79
2023/03/26 05:59:25;;;;;;;17.67;2.70;;;6.60;99.90;;;;;;5017907;28;20482;-78
2023/03/26 06:01:53;;;;;;;16.27;2.20;;;6.70;99.90;;;;;;5006317;28;20413;-79
2023/03/26 06:04:19;;;;;;;16.43;2.50;;;6.70;99.90;;;;;;5009173;28;20411;-79
2023/03/26 06:06:45;;;;;;;16.83;2.70;;;6.70;99.90;;;;;;5010548;28;20811;-79
2023/03/26 06:09:12;;;;;;;14.75;2.58;;;6.70;99.90;;;;;;5013528;28;20403;-79
2023/03/26 06:11:38;;;;;;;14.02;2.40;;;6.70;99.90;;;;;;5010805;28;20458;-79
2023/03/26 06:14:04;;;;;;;16.65;2.63;;;6.80;99.90;;;;;;5008987;28;20564;-79
2023/03/26 06:16:30;;;;;;;19.83;2.55;;;6.80;99.90;;;;;;5006572;28;20409;-79
2023/03/26 06:18:56;;;;;;;13.40;2.40;;;6.80;99.90;;;;;;4989944;28;20436;-79
2023/03/26 06:21:22;;;;;;;17.03;2.40;;;6.80;99.90;;;;;;5006389;28;20422;-79
2023/03/26 06:23:47;;;;;;;12.57;2.33;;;6.80;99.90;;;;;;4990553;28;20413;-79
2023/03/26 06:26:14;;;;;;;18.88;2.65;;;6.80;99.90;;;;;;5006438;28;20421;-79
2023/03/26 06:28:40;;;;;;;15.55;2.50;;;6.80;99.90;;;;;;4989556;28;20421;-80
2023/03/26 06:31:05;;;;;;;17.52;2.90;;;6.90;99.90;;;;;;5006882;28;20768;-80
2023/03/26 06:33:31;;;;;;;11.83;2.03;;;6.90;99.90;;;;;;5007912;28;20417;-80
2023/03/26 06:35:57;;;;;;;18.65;2.90;;;6.90;99.90;;;;;;5006037;28;20939;-80
2023/03/26 06:38:23;;;;;;;15.13;2.60;;;7.00;99.90;;;;;;5006183;28;20439;-80
2023/03/26 06:40:49;;;;;;;15.55;2.70;;;6.90;99.90;;;;;;5006863;28;20480;-80
2023/03/26 06:43:14;;;;;;;16.17;2.37;;;7.00;99.90;;;;;;5006362;28;20405;-80
2023/03/26 06:45:40;;;;;;;16.50;2.55;;;7.00;99.90;;;;;;5006095;28;20833;-80
2023/03/26 06:48:07;;;;;;;16.42;2.65;;;7.00;99.90;;;;;;5010267;28;20404;-80
2023/03/26 06:50:33;;;;;;;15.13;2.47;;;7.00;99.90;;;;;;5005620;28;21118;-80
2023/03/26 06:52:59;;;;;;;16.47;2.40;;;7.00;99.90;;;;;;5019080;28;20462;-80
2023/03/26 06:55:25;;;;;;;16.50;2.70;;;7.10;99.90;;;;;;5005725;28;20445;-80
2023/03/26 06:57:52;;;;;;;18.48;2.60;;;7.10;99.90;;;;;;5017483;28;20462;-80
2023/03/26 07:00:19;;;;;;;13.60;2.33;;;7.10;99.90;;;;;;5005419;28;20404;-80
2023/03/26 07:02:45;;;;;;;12.40;2.08;;;7.10;99.90;;;;;;5004938;28;20915;-81
2023/03/26 07:05:11;;;;;;;12.93;2.30;;;7.10;99.90;;;;;;5018522;28;20498;-80
2023/03/26 07:07:37;;;;;;;14.73;2.40;;;7.10;99.90;;;;;;5005890;28;20420;-80
2023/03/26 07:10:03;;;;;;;13.82;2.50;;;7.10;99.90;;;;;;5005656;28;20417;-80
2023/03/26 07:12:29;;;;;;;13.03;1.97;;;7.10;99.90;;;;;;4989083;28;20445;-80
2023/03/26 07:14:55;;;;;;;13.73;2.25;;;7.10;99.90;;;;;;5005087;28;20448;-80
2023/03/26 07:17:21;;;;;;;13.85;2.30;;;7.10;99.90;;;;;;5006114;28;20412;-80
2023/03/26 07:19:46;;;;;;;15.97;2.50;;;7.10;99.90;;;;;;5005490;28;21011;-80
2023/03/26 07:22:19;;;;;;;14.38;2.70;;;7.10;99.90;;;;;;5005622;28;20409;-80
2023/03/26 07:24:45;;;;;;;14.60;2.10;;;7.10;99.90;;;;;;5006800;28;20908;-80
2023/03/26 07:27:35;;;;;;;17.10;2.78;;;7.10;99.90;;;;;;5005278;28;20984;-80
2023/03/26 07:30:01;;;;;;;14.20;2.05;;;7.10;99.90;;;;;;5007355;28;20417;-80
2023/03/26 07:32:51;;;;;;;14.60;2.43;;;7.10;99.90;;;;;;5007224;28;20409;-80
2023/03/26 07:35:28;;;;;;;15.80;2.80;;;7.20;99.90;;;;;;5006695;28;20405;-80
2023/03/26 07:38:16;;;;;;;12.27;2.08;;;7.30;99.90;;;;;;5006736;28;20433;-80
2023/03/26 07:41:14;;;;;;;14.27;2.23;;;7.30;99.90;;;;;;5005142;28;20991;-80
2023/03/26 07:44:10;;;;;;;15.98;2.22;;;7.40;99.90;;;;;;4994210;28;20447;-81
2023/03/26 07:46:36;;;;;;;17.25;2.60;;;7.40;99.90;;;;;;5026756;28;20419;-80
2023/03/26 07:49:03;;;;;;;17.17;2.30;;;7.50;99.90;;;;;;5040668;28;21094;-80
2023/03/26 07:51:29;;;;;;;16.85;3.25;;;7.60;99.90;;;;;;5005601;28;20405;-80
2023/03/26 07:53:57;;;;;;;13.90;2.20;;;7.60;99.90;;;;;;5006748;28;20783;-80
2023/03/26 07:56:33;;;;;;;14.93;2.60;;;7.70;99.90;;;;;;4987616;28;20417;-80
2023/03/26 07:59:17;;;;;;;19.42;2.72;;;7.70;99.90;;;;;;5006260;28;20478;-80
2023/03/26 08:02:21;;;;;;;14.65;2.50;;;7.70;99.90;;;;;;4998447;28;20405;-80
2023/03/26 08:05:02;;;;;;;16.58;2.47;;;7.80;99.90;;;;;;5003129;28;20443;-80
2023/03/26 08:07:38;;;;;;;13.10;2.22;;;7.80;99.90;;;;;;5004188;28;20413;-80
2023/03/26 08:10:11;;;;;;;16.83;2.30;;;7.80;99.90;;;;;;5005169;28;20792;-80
2023/03/26 08:12:39;;;;;;;16.33;2.42;;;7.90;99.90;;;;;;4984804;28;20470;-80
2023/03/26 08:15:28;;;;;;;17.33;2.60;;;7.80;99.90;;;;;;5004216;28;20421;-80
2023/03/26 08:18:18;;;;;;;12.02;2.08;;;7.80;99.90;;;;;;5004432;28;20800;-80
2023/03/26 08:20:50;;;;;;;14.27;2.37;;;7.80;99.90;;;;;;5000328;28;20474;-80
2023/03/26 08:23:48;;;;;;;16.67;2.53;;;7.80;99.90;;;;;;5004631;28;20448;-80
2023/03/26 08:26:46;;;;;;;13.88;1.90;;;7.90;99.90;;;;;;5013556;28;20421;-80
2023/03/26 08:29:12;;;;;;;13.93;2.08;;;7.90;99.90;;;;;;5003851;28;20924;-80
2023/03/26 08:31:40;;;;;;;13.25;1.95;;;7.90;99.90;;;;;;5007380;28;20426;-80
2023/03/26 08:34:10;;;;;;;10.45;2.05;;;7.90;99.90;;;;;;5010168;28;20454;-80
2023/03/26 08:36:35;;;;;;;13.68;1.88;;;8.00;99.90;;;;;;5012809;28;21227;-80
2023/03/26 08:39:01;;;;;;;20.23;2.77;;;8.00;99.90;;;;;;5004211;28;20482;-80
2023/03/26 08:41:33;;;;;;;13.07;2.20;;;8.10;99.90;;;;;;5003733;28;20403;-80
2023/03/26 08:44:23;;;;;;;15.23;2.28;;;8.10;99.90;;;;;;5019177;28;20417;-80
2023/03/26 08:47:15;;;;;;;13.27;2.25;;;8.20;99.90;;;;;;4993594;28;20449;-80
2023/03/26 08:50:06;;;;;;;12.10;2.10;;;8.20;99.90;;;;;;5003559;28;20437;-79
2023/03/26 08:52:46;;;;;;;14.27;2.10;;;8.30;99.90;;;;;;5008127;28;20776;-79
2023/03/26 08:55:37;;;;;;;15.15;2.38;;;8.40;99.90;;;;;;5002015;28;20459;-78
2023/03/26 08:58:17;;;;;;;12.25;2.78;;;8.50;99.90;;;;;;5011302;28;20461;-78
2023/03/26 09:00:58;;;;;;;13.20;2.00;;;8.50;99.90;;;;;;5005563;28;20528;-79
2023/03/26 09:03:42;;;;;;;10.82;2.00;;;8.60;99.90;;;;;;5011453;28;20492;-78
2023/03/26 09:06:30;;;;;;;13.63;2.17;;;8.70;99.90;;;;;;5012123;28;20433;-78
2023/03/26 09:09:23;;;;;;;12.05;2.08;;;8.70;99.90;;;;;;5011434;28;20424;-79
2023/03/26 09:12:03;;;;;;;16.50;2.35;;;8.70;99.90;;;;;;5002279;28;20515;-78
2023/03/26 09:14:44;;;;;;;11.20;2.03;;;8.80;99.90;;;;;;5009728;28;20435;-78
2023/03/26 09:17:19;;;;;;;15.60;2.00;;;8.70;99.90;;;;;;5007838;28;20456;-78
2023/03/26 09:20:10;;;;;;;11.02;1.77;;;8.70;99.90;;;;;;5005989;28;20435;-79
2023/03/26 09:22:52;;;;;;;12.85;1.98;;;8.70;99.90;;;;;;5008387;28;20438;-79
2023/03/26 09:25:27;;;;;;;12.95;2.17;;;8.80;99.90;;;;;;5016196;28;20438;-79
2023/03/26 09:28:24;;;;;;;10.70;1.77;;;8.90;99.90;;;;;;5009274;28;20440;-79
2023/03/26 09:31:20;;;;;;;12.95;2.00;;;8.90;99.90;;;;;;5012877;28;20768;-78
2023/03/26 09:34:37;;;;;;;13.95;1.88;;;8.80;99.90;;;;;;5009424;28;20454;-78
2023/03/26 09:37:22;;;;;;;12.77;2.30;;;8.90;99.90;;;;;;5032710;28;20475;-77
2023/03/26 09:40:19;;;;;;;11.63;2.30;;;9.10;99.90;;;;;;5028824;28;20873;-78
2023/03/26 09:43:27;;;;;;;10.73;1.70;;;9.40;99.90;;;;;;4997319;28;20439;-78
2023/03/26 09:46:15;;;;;;;10.43;1.98;;;9.50;99.90;;;;;;5005676;28;20437;-78
2023/03/26 09:49:12;;;;;;;10.63;1.63;;;9.70;99.90;;;;;;5013878;28;20442;-79
2023/03/26 09:51:53;;;;;;;10.93;1.73;;;10.60;99.90;;;;;;5008560;28;20507;-79
2023/03/26 09:54:27;;;;;;;11.73;1.73;;;11.00;99.90;;;;;;5013863;28;20822;-79
2023/03/26 09:57:14;;;;;;;9.93;1.55;;;11.10;99.90;;;;;;5012402;28;20425;-79
2023/03/26 09:59:55;;;;;;;12.57;1.90;;;10.90;99.90;;;;;;5007268;28;20451;-79
2023/03/26 10:02:40;;;;;;;13.55;2.55;;;10.70;99.90;;;;;;5006170;28;21010;-79
2023/03/26 10:05:29;;;;;;;11.73;1.60;;;10.50;99.90;;;;;;5013589;28;20421;-79
2023/03/26 10:08:28;;;;;;;10.88;2.03;;;10.80;99.90;;;;;;5008065;28;20490;-79
2023/03/26 10:11:12;;;;;;;11.85;1.85;;;11.00;99.90;;;;;;5018177;28;20944;-79
2023/03/26 10:13:57;;;;;;;10.90;2.00;;;10.90;99.90;;;;;;5013646;28;20457;-79
2023/03/26 10:16:50;;;;;;;10.75;2.20;;;10.80;99.90;;;;;;5013196;28;20466;-79
2023/03/26 10:19:41;;;;;;;12.35;2.22;;;10.40;99.90;;;;;;5007700;28;20957;-79
2023/03/26 10:22:32;;;;;;;13.77;1.63;;;10.20;99.90;;;;;;4996055;28;20423;-79
2023/03/26 10:25:20;;;;;;;11.32;1.80;;;10.00;99.90;;;;;;5008459;28;20923;-79
2023/03/26 10:28:24;;;;;;;11.10;2.17;;;10.00;99.90;;;;;;5012452;28;20421;-79
2023/03/26 10:31:09;;;;;;;10.75;1.45;;;10.00;99.90;;;;;;5004332;28;20421;-79
2023/03/26 10:33:57;;;;;;;7.87;1.57;;;10.00;99.90;;;;;;5006107;28;21235;-79
2023/03/26 10:36:31;;;;;;;9.77;1.50;;;10.00;99.90;;;;;;5009984;28;21148;-79
2023/03/26 10:39:15;;;;;;;11.73;1.80;;;10.00;99.90;;;;;;5016425;28;20438;-79
2023/03/26 10:41:52;;;;;;;11.98;2.25;;;10.10;99.90;;;;;;5020007;28;20411;-77
2023/03/26 10:44:49;;;;;;;10.97;1.67;;;10.40;99.90;;;;;;4998179;28;20424;-78
2023/03/26 10:47:17;;;;;;;13.20;1.70;;;11.20;99.90;;;;;;5008263;28;20428;-78
2023/03/26 10:50:17;;;;;;;13.40;1.80;;;11.90;99.90;;;;;;5007025;28;20510;-79
2023/03/26 10:52:53;;;;;;;12.45;1.90;;;12.90;99.90;;;;;;5003294;28;20464;-79
2023/03/26 10:55:33;;;;;;;8.35;1.60;;;13.80;99.90;;;;;;5005632;28;21292;-79
2023/03/26 10:58:04;;;;;;;8.55;1.48;;;13.90;97.80;;;;;;4997175;28;20429;-78
2023/03/26 11:00:41;;;;;;;10.63;1.85;;;13.60;98.30;;;;;;5007426;28;20496;-79
2023/03/26 11:03:31;;;;;;;8.32;1.98;;;13.10;97.50;;;;;;4996034;28;20401;-79
2023/03/26 11:06:29;;;;;;;9.27;1.70;;;12.60;99.60;;;;;;5008828;28;20549;-79
2023/03/26 11:09:07;;;;;;;10.52;1.40;;;12.40;99.90;;;;;;5009833;28;20443;-79
2023/03/26 11:11:43;;;;;;;9.17;1.73;;;12.10;99.90;;;;;;5008034;28;20424;-79
2023/03/26 11:14:40;;;;;;;8.20;1.38;;;11.80;98.20;;;;;;5009737;28;20539;-79
2023/03/26 11:17:29;;;;;;;7.97;1.50;;;11.60;99.50;;;;;;5008176;28;20412;-79
2023/03/26 11:20:32;;;;;;;11.30;1.80;;;11.50;99.90;;;;;;5008459;28;20435;-79
2023/03/26 11:23:11;;;;;;;12.15;2.03;;;11.30;99.20;;;;;;4999821;28;20421;-79
2023/03/26 11:25:57;;;;;;;11.05;1.70;;;11.20;99.50;;;;;;5005338;28;21076;-79
2023/03/26 11:28:29;;;;;;;9.60;1.52;;;11.50;99.90;;;;;;5008296;28;20423;-78
2023/03/26 11:31:13;;;;;;;8.73;1.63;;;11.60;99.90;;;;;;5006311;28;20806;-79
2023/03/26 11:33:52;;;;;;;9.43;1.50;;;11.50;99.00;;;;;;5008283;28;20800;-79
2023/03/26 11:36:24;;;;;;;10.70;1.70;;;11.40;99.00;;;;;;5006064;28;20466;-78
2023/03/26 11:38:53;;;;;;;11.00;1.90;;;11.40;99.90;;;;;;5006449;28;20455;-78
2023/03/26 11:41:25;;;;;;;11.40;1.90;;;11.60;99.90;;;;;;5008705;28;20785;-79
2023/03/26 11:43:58;;;;;;;11.15;1.40;;;12.20;99.90;;;;;;5007348;28;20420;-78
2023/03/26 11:46:25;;;;;;;10.25;1.52;;;12.60;99.90;;;;;;5009609;28;20913;-78
2023/03/26 11:48:58;;;;;;;11.70;1.73;;;12.70;99.90;;;;;;5006980;28;20413;-78
2023/03/26 11:51:31;;;;;;;10.47;1.80;;;12.70;99.10;;;;;;5009790;28;20441;-78
2023/03/26 11:53:58;;;;;;;10.45;2.00;;;12.50;98.40;;;;;;5008620;28;20948;-78
2023/03/26 11:56:33;;;;;;;9.70;1.45;;;12.20;96.60;;;;;;5017721;28;20838;-78
2023/03/26 11:59:19;;;;;;;10.50;1.90;;;11.90;99.90;;;;;;5008432;28;21061;-78
2023/03/26 12:01:57;;;;;;;10.40;1.60;;;11.70;99.90;;;;;;5004789;28;20463;-78
2023/03/26 12:04:49;;;;;;;9.68;1.52;;;11.70;98.40;;;;;;5013987;28;20493;-78
2023/03/26 12:07:20;;;;;;;7.70;1.33;;;11.80;98.50;;;;;;5006843;28;20509;-79
2023/03/26 12:09:56;;;;;;;10.32;1.30;;;11.80;99.00;;;;;;5006067;28;20512;-79
2023/03/26 12:12:30;;;;;;;13.75;1.65;;;11.70;98.30;;;;;;5008618;28;20775;-79
2023/03/26 12:14:57;;;;;;;8.82;1.80;;;11.60;98.90;;;;;;5008675;28;20814;-78
2023/03/26 12:17:38;;;;;;;9.35;1.48;;;11.30;98.10;;;;;;5004530;28;20431;-79
2023/03/26 12:20:24;;;;;;;9.50;1.40;;;11.10;98.60;;;;;;5003186;28;20417;-78
2023/03/26 12:22:51;;;;;;;9.55;1.27;;;11.60;99.90;;;;;;5014559;28;20486;-78
2023/03/26 12:25:25;;;;;;;9.38;1.55;;;12.20;97.20;;;;;;5005632;28;20409;-78
2023/03/26 12:27:56;;;;;;;6.60;1.20;;;12.60;97.00;;;;;;5004570;28;20462;-78
2023/03/26 12:30:26;;;;;;;8.60;1.48;;;13.20;93.70;;;;;;5004517;28;20505;-78
2023/03/26 12:33:02;;;;;;;9.10;1.43;;;13.50;93.80;;;;;;5004645;28;20919;-78
2023/03/26 12:35:33;;;;;;;8.13;1.15;;;13.60;94.60;;;;;;4997376;28;20967;-78
2023/03/26 12:38:37;;;;;;;8.23;1.20;;;13.50;92.20;;;;;;5005436;28;20480;-78
2023/03/26 12:41:13;;;;;;;8.05;1.20;;;13.50;93.90;;;;;;5005215;28;20417;-78
2023/03/26 12:43:50;;;;;;;7.07;1.23;;;13.60;93.20;;;;;;5013413;28;20418;-78
2023/03/26 12:46:25;;;;;;;9.50;1.85;;;13.20;89.20;;;;;;5003589;28;20454;-78
2023/03/26 12:48:56;;;;;;;10.40;1.30;;;13.00;91.50;;;;;;5004422;28;20417;-78
2023/03/26 12:51:45;;;;;;;10.00;1.08;;;13.20;91.20;;;;;;5005212;28;20410;-78
2023/03/26 12:54:35;;;;;;;8.68;1.20;;;13.40;90.60;;;;;;5005283;28;20785;-78
2023/03/26 12:57:19;;;;;;;6.10;1.20;;;14.00;90.00;;;;;;5003507;28;20943;-78
2023/03/26 12:59:50;;;;;;;7.13;1.00;;;14.60;90.70;;;;;;5080050;28;20447;-77
2023/03/26 13:03:02;;;;;;;9.10;1.30;;;14.90;88.40;;;;;;5008134;28;20417;-78
2023/03/26 13:05:45;;;;;;;12.20;1.48;;;15.20;87.90;;;;;;5007448;28;20927;-79
2023/03/26 13:08:23;;;;;;;8.55;1.20;;;15.60;85.50;;;;;;5012395;28;20436;-78
2023/03/26 13:10:58;;;;;;;10.02;1.42;;;15.90;82.10;;;;;;5015319;28;20431;-79
2023/03/26 13:13:49;;;;;;;12.65;2.25;;;15.50;82.60;;;;;;5009196;28;20449;-78
2023/03/26 13:16:33;;;;;;;9.73;1.60;;;14.80;86.10;;;;;;5008177;28;20466;-78
2023/03/26 13:19:16;;;;;;;10.20;1.52;;;14.10;87.30;;;;;;5015423;28;21010;-79
2023/03/26 13:22:06;;;;;;;9.05;1.45;;;13.50;87.10;;;;;;5006090;28;20652;-79